Řízení letového provozu České republiky
OPMET data - Ceska Republika Aktualizace: 20.01.2019 11:31:06  UTC
SIGMET / AIRMET - NIL
Warning / Vystraha - NIL
AIREP - NIL
 
METAR / SPECI
METAR LKBC 201130Z AUTO VRB01KT 9999 FEW015 OVC024 M02/M05 Q1013=
METAR LKCV 201100Z VRB02KT 9999 BKN028 M01/M04 Q1016 NOSIG RMK BLU BLU=
METAR LKKB 201100Z VRB02KT 9000 OVC031 M03/M06 Q1016 NOSIG RMK BLU BLU=
METAR LKKU NIL
METAR LKKV 201130Z 11007KT 070V140 9999 OVC011 M05/M07 Q1014 R29/720295 RMK REG QNH 1010 =
METAR LKLN 201130Z AUTO VRB02KT 9999 OVC021 M02/M04 Q1016=
METAR LKMT 201130Z 04004KT 3000 BR NSC M02/M05 Q1016 R04/31//95 TEMPO 5000 BR RMK REG QNH 1010=
METAR LKNA 201100Z 15003KT 120V200 9999 BKN019 OVC024 M02/M06 Q1014 NOSIG RMK WHT WHT=
METAR LKPD 201100Z 12003KT 100V170 8000 SCT037 BKN050 M00/M06 Q1017 NOSIG RMK BLU BLU=
METAR LKPR 201130Z 34004KT 290V010 8000 OVC028 M04/M05 Q1016 NOSIG RMK REG QNH 1010=
METAR LKTB 201130Z 09004KT 060V120 9999 BKN037 00/M06 Q1016 NOSIG RMK REG QNH 1010=
METAR LKVO NIL
TAF
TAF LKBC NIL
TAF LKCV 200500Z 2006/2106 VRB02KT 9999 OVC030      TEMPO 2006/2010 4000 BR OVC012      PROB30 TEMPO 2006/2010 2500 -SN BR OVC005      BECMG 2016/2019 CAVOK      TEMPO 2100/2106 2000 MIFG BR BKN012=
TAF LKKB 200500Z 2006/2106 07004KT 9999 BKN024      BECMG 2020/2022 CAVOK      BECMG 2104/2106 5000 BR=
TAF LKKU NIL
TAF LKKV 201100Z 2012/2118 11008KT 9999 OVC012      TEMPO 2012/2016 5000 BR BKN007      TEMPO 2016/2021 SCT017      BECMG 2022/2100 5000 BR SCT003      BECMG 2100/2102 1200 BR BKN003      TEMPO 2102/2109 0500 FZFG VV002      PROB30 TEMPO 2103/2108 0200 FZFG VV001      BECMG 2109/2111 9999 SCT022      BECMG 2116/2118 BKN025=
TAF LKLN NIL
TAF AMD LKMT 201100Z 2012/2118 05004KT 2500 BR NSC      TEMPO 2012/2016 5000 BR BKN017      BECMG 2102/2104 0500 FZFG BKN004      TEMPO 2104/2108 0200 FZFG VV001      BECMG 2108/2110 6000 BKN012      BECMG 2113/2115 CAVOK      BECMG 2117/2118 VRB02KT=
TAF LKNA 200500Z 2006/2106 10005KT 9999 BKN025      TEMPO 2006/2012 4000 -SN BR OVC015      BECMG 2014/2016 VRB02KT SCT025      BECMG 2018/2020 CAVOK      PROB30 2021/2106 0800 FZFG BKN002=
TAF LKPD 200500Z 2006/2106 VRB02KT 9999 BKN030      BECMG 2017/2020 CAVOK      TEMPO 2100/2106 4000 BR=
TAF LKPR 201100Z 2012/2118 34004KT 8000 OVC025      BECMG 2018/2021 SCT020      BECMG 2100/2102 CAVOK      BECMG 2104/2106 3000 BR BKN008      TEMPO 2106/2109 1500 BR BKN004      PROB30 TEMPO 2106/2109 0700 FZFG VV002      BECMG 2109/2111 05004KT CAVOK=
TAF LKTB 201100Z 2012/2118 08005KT 9999 BKN035      BECMG 2015/2018 VRB02KT CAVOK      TEMPO 2022/2107 4000 BR NSC      BECMG 2111/2113 08006KT=
TAF LKVO NIL